Observation data for Post on 06/26/2019      Previous  Date  Next       Current Mesonet Observations  Soil Data  Daily Summary Page  Observations in Plain Language
KPT1 260500Z 05006KT 24/16 A301 RMK A01 T02400163  RH  063%=      5-min Rain = 0
KPT1 260505Z 06007KT 24/16 A301 RMK A01 T02370163  RH  064%=      5-min Rain = 0
KPT1 260510Z 06006KT 24/16 A301 RMK A01 T02360162  RH  065%=      5-min Rain = 0
KPT1 260515Z 06005KT 23/16 A3011 RMK A01 T02340162  RH  065%=      5-min Rain = 0
KPT1 260520Z 06007KT 23/16 A3011 RMK A01 T02330162  RH  066%=      5-min Rain = 0
KPT1 260525Z 06006KT 23/16 A3011 RMK A01 T02330162  RH  066%=      5-min Rain = 0
KPT1 260530Z 07006KT 23/16 A3011 RMK A01 T02330161  RH  065%=      5-min Rain = 0
KPT1 260535Z 08005KT 23/16 A3011 RMK A01 T02330161  RH  065%=      5-min Rain = 0
KPT1 260540Z 09006KT 23/16 A301 RMK A01 T02320161  RH  066%=      5-min Rain = 0
KPT1 260545Z 09005KT 23/16 A301 RMK A01 T02320161  RH  066%=      5-min Rain = 0
KPT1 260550Z 08004KT 23/16 A301 RMK A01 T02310161  RH  066%=      5-min Rain = 0
KPT1 260555Z 08002KT 23/16 A3011 RMK A01 T02300161  RH  067%=      5-min Rain = 0
KPT1 260600Z 15002KT 23/16 A3011 RMK A01 T02280162  RH  068%=      5-min Rain = 0
KPT1 260605Z 16004KT 23/16 A301 RMK A01 T02260162  RH  069%=      5-min Rain = 0
KPT1 260610Z 17006KT 22/16 A3009 RMK A01 T02240164  RH  070%=      5-min Rain = 0
KPT1 260615Z 16006KT 23/16 A3009 RMK A01 T02250164  RH  070%=      5-min Rain = 0
KPT1 260620Z 15004KT 23/16 A3009 RMK A01 T02250164  RH  070%=      5-min Rain = 0
KPT1 260625Z 14003KT 23/16 A3009 RMK A01 T02270164  RH  069%=      5-min Rain = 0
KPT1 260630Z 11003KT 23/16 A301 RMK A01 T02280164  RH  068%=      5-min Rain = 0
KPT1 260635Z 09003KT 23/16 A301 RMK A01 T02270164  RH  069%=      5-min Rain = 0
KPT1 260640Z 11004KT 23/17 A3009 RMK A01 T02250165  RH  070%=      5-min Rain = 0
KPT1 260645Z 11004KT 22/17 A301 RMK A01 T02230165  RH  071%=      5-min Rain = 0
KPT1 260650Z 11003KT 22/17 A301 RMK A01 T02240165  RH  071%=      5-min Rain = 0
KPT1 260655Z 12003KT 22/17 A3009 RMK A01 T02240165  RH  071%=      5-min Rain = 0
KPT1 260700Z 14004KT 22/17 A3009 RMK A01 T02220166  RH  072%=      5-min Rain = 0
KPT1 260705Z 15005KT 22/17 A3008 RMK A01 T02200169  RH  075%=      5-min Rain = 0
KPT1 260710Z 15006KT 22/17 A3007 RMK A01 T02200170  RH  075%=      5-min Rain = 0
KPT1 260715Z 15005KT 22/17 A3007 RMK A01 T02200170  RH  075%=      5-min Rain = 0
KPT1 260720Z 16003KT 22/17 A3007 RMK A01 T02200170  RH  075%=      5-min Rain = 0
KPT1 260725Z 18002KT 22/17 A3008 RMK A01 T02200170  RH  075%=      5-min Rain = 0
KPT1 260730Z 19003KT 22/17 A3007 RMK A01 T02210170  RH  074%=      5-min Rain = 0
KPT1 260735Z 17006KT 22/17 A3007 RMK A01 T02190170  RH  076%=      5-min Rain = 0
KPT1 260740Z 16008KT 22/17 A3006 RMK A01 T02190170  RH  076%=      5-min Rain = 0
KPT1 260745Z 16008KT 22/17 A3006 RMK A01 T02200170  RH  075%=      5-min Rain = 0
KPT1 260750Z 16009KT 22/17 A3005 RMK A01 T02210171  RH  075%=      5-min Rain = 0
KPT1 260755Z 15010KT 22/17 A3005 RMK A01 T02210171  RH  075%=      5-min Rain = 0
KPT1 260800Z 16010KT 22/17 A3004 RMK A01 T02220170  RH  074%=      5-min Rain = 0
KPT1 260805Z 18008KT 22/17 A3004 RMK A01 T02210170  RH  075%=      5-min Rain = 0
KPT1 260810Z 19007KT 22/17 A3004 RMK A01 T02200170  RH  075%=      5-min Rain = 0
KPT1 260815Z 18006KT 22/17 A3004 RMK A01 T02200170  RH  075%=      5-min Rain = 0
KPT1 260820Z 17005KT 22/17 A3005 RMK A01 T02200169  RH  074%=      5-min Rain = 0
KPT1 260825Z 17006KT 22/17 A3004 RMK A01 T02190169  RH  075%=      5-min Rain = 0
KPT1 260830Z 17010KT 22/17 A3003 RMK A01 T02200169  RH  075%=      5-min Rain = 0
KPT1 260835Z 18009KT 22/17 A3002 RMK A01 T02220168  RH  073%=      5-min Rain = 0
KPT1 260840Z 19009KT 22/17 A3002 RMK A01 T02230168  RH  073%=      5-min Rain = 0
KPT1 260845Z 19006KT 23/17 A3003 RMK A01 T02280167  RH  070%=      5-min Rain = 0
KPT1 260850Z 18007G12KT 23/17 A3004 RMK A01 T02300167  RH  069%=      5-min Rain = 0
KPT1 260855Z 18007KT 23/17 A3004 RMK A01 T02280167  RH  070%=      5-min Rain = 0
KPT1 260900Z 18007KT 23/17 A3004 RMK A01 T02280167  RH  070%=      5-min Rain = 0
KPT1 260905Z 17007KT 23/17 A3004 RMK A01 T02300166  RH  069%=      5-min Rain = 0
KPT1 260910Z 17007KT 23/17 A3004 RMK A01 T02280166  RH  070%=      5-min Rain = 0
KPT1 260915Z 18006KT 23/17 A3004 RMK A01 T02250166  RH  071%=      5-min Rain = 0
KPT1 260920Z 18007KT 23/17 A3004 RMK A01 T02250167  RH  071%=      5-min Rain = 0
KPT1 260925Z 19007KT 23/17 A3004 RMK A01 T02250167  RH  071%=      5-min Rain = 0
KPT1 260930Z 20008KT 22/17 A3004 RMK A01 T02240167  RH  072%=      5-min Rain = 0
KPT1 260935Z 20008KT 22/17 A3004 RMK A01 T02220167  RH  073%=      5-min Rain = 0
KPT1 260940Z 21009KT 22/17 A3004 RMK A01 T02210167  RH  073%=      5-min Rain = 0
KPT1 260945Z 21007KT 22/17 A3004 RMK A01 T02190167  RH  074%=      5-min Rain = 0
KPT1 260950Z 21007KT 22/17 A3004 RMK A01 T02160168  RH  076%=      5-min Rain = 0
KPT1 260955Z 21007KT 22/17 A3004 RMK A01 T02150168  RH  076%=      5-min Rain = 0
KPT1 261000Z 20008KT 22/17 A3004 RMK A01 T02150169  RH  077%=      5-min Rain = 0
KPT1 261005Z 20009KT 22/17 A3004 RMK A01 T02160168  RH  076%=      5-min Rain = 0
KPT1 261010Z 19008KT 22/17 A3004 RMK A01 T02160168  RH  076%=      5-min Rain = 0
KPT1 261015Z 19007KT 21/17 A3004 RMK A01 T02140169  RH  077%=      5-min Rain = 0
KPT1 261020Z 19008KT 21/17 A3004 RMK A01 T02140170  RH  078%=      5-min Rain = 0
KPT1 261025Z 19008KT 22/17 A3004 RMK A01 T02160170  RH  077%=      5-min Rain = 0
KPT1 261030Z 19008KT 22/17 A3004 RMK A01 T02170170  RH  077%=      5-min Rain = 0
KPT1 261035Z 19009G14KT 22/17 A3004 RMK A01 T02170170  RH  077%=      5-min Rain = 0
KPT1 261040Z 19009KT 22/17 A3004 RMK A01 T02170171  RH  077%=      5-min Rain = 0
KPT1 261045Z 19007KT 22/17 A3004 RMK A01 T02160171  RH  078%=      5-min Rain = 0
KPT1 261050Z 19008KT 21/17 A3005 RMK A01 T02140171  RH  078%=      5-min Rain = 0
KPT1 261055Z 20007KT 21/17 A3005 RMK A01 T02130172  RH  079%=      5-min Rain = 0
KPT1 261100Z 20006KT 21/17 A3005 RMK A01 T02120172  RH  080%=      5-min Rain = 0
KPT1 261105Z 20008G13KT 21/17 A3005 RMK A01 T02130172  RH  080%=      5-min Rain = 0
KPT1 261110Z 20007KT 21/17 A3005 RMK A01 T02120172  RH  080%=      5-min Rain = 0
KPT1 261115Z 20008KT 21/17 A3005 RMK A01 T02120173  RH  080%=      5-min Rain = 0
KPT1 261120Z 20007G12KT 21/17 A3005 RMK A01 T02110173  RH  080%=      5-min Rain = 0
KPT1 261125Z 20008G14KT 21/17 A3005 RMK A01 T02110173  RH  081%=      5-min Rain = 0
KPT1 261130Z 20008KT 21/17 A3005 RMK A01 T02100173  RH  081%=      5-min Rain = 0
KPT1 261135Z 21007KT 21/17 A3006 RMK A01 T02090173  RH  082%=      5-min Rain = 0
KPT1 261140Z 21008KT 21/17 A3006 RMK A01 T02090173  RH  082%=      5-min Rain = 0
KPT1 261145Z 20007KT 21/17 A3006 RMK A01 T02090173  RH  082%=      5-min Rain = 0
KPT1 261150Z 20008KT 21/17 A3006 RMK A01 T02100174  RH  082%=      5-min Rain = 0
KPT1 261155Z 20007G12KT 21/17 A3006 RMK A01 T02100174  RH  082%=      5-min Rain = 0
KPT1 261200Z 20007KT 21/17 A3007 RMK A01 T02100174  RH  082%=      5-min Rain = 0
KPT1 261205Z 20005KT 21/18 A3007 RMK A01 T02110175  RH  082%=      5-min Rain = 0
KPT1 261210Z 20005KT 21/18 A3007 RMK A01 T02120176  RH  082%=      5-min Rain = 0
KPT1 261215Z 19005KT 21/18 A3008 RMK A01 T02130176  RH  081%=      5-min Rain = 0
KPT1 261220Z 19006KT 22/18 A3008 RMK A01 T02150176  RH  081%=      5-min Rain = 0
KPT1 261225Z 20006KT 22/18 A3008 RMK A01 T02160177  RH  080%=      5-min Rain = 0
KPT1 261230Z 19006KT 22/18 A3009 RMK A01 T02180178  RH  080%=      5-min Rain = 0
KPT1 261235Z 19005KT 22/18 A3009 RMK A01 T02190178  RH  079%=      5-min Rain = 0
KPT1 261240Z 18005KT 22/18 A3009 RMK A01 T02220180  RH  079%=      5-min Rain = 0
KPT1 261245Z 17005KT 22/18 A3009 RMK A01 T02240180  RH  078%=      5-min Rain = 0
KPT1 261250Z 18006KT 23/18 A3009 RMK A01 T02250179  RH  077%=      5-min Rain = 0
KPT1 261255Z 18005KT 23/18 A301 RMK A01 T02260180  RH  077%=      5-min Rain = 0
KPT1 261300Z 18006KT 23/18 A301 RMK A01 T02270179  RH  076%=      5-min Rain = 0
KPT1 261305Z 19008KT 23/18 A301 RMK A01 T02270179  RH  076%=      5-min Rain = 0
KPT1 261310Z 19006KT 23/18 A301 RMK A01 T02280180  RH  076%=      5-min Rain = 0
KPT1 261315Z 19008KT 23/18 A301 RMK A01 T02300180  RH  075%=      5-min Rain = 0
KPT1 261320Z 20007KT 23/18 A301 RMK A01 T02300181  RH  076%=      5-min Rain = 0
KPT1 261325Z 19007KT 23/18 A301 RMK A01 T02320182  RH  075%=      5-min Rain = 0
KPT1 261330Z 20009KT 23/18 A301 RMK A01 T02330182  RH  075%=      5-min Rain = 0
KPT1 261335Z 20008KT 23/18 A301 RMK A01 T02340183  RH  075%=      5-min Rain = 0
KPT1 261340Z 20008KT 24/18 A301 RMK A01 T02370184  RH  074%=      5-min Rain = 0
KPT1 261345Z 20008G14KT 24/18 A3011 RMK A01 T02400184  RH  073%=      5-min Rain = 0
KPT1 261350Z 20008G13KT 24/18 A3011 RMK A01 T02400184  RH  072%=      5-min Rain = 0
KPT1 261355Z 21008KT 24/18 A3011 RMK A01 T02420184  RH  072%=      5-min Rain = 0
KPT1 261400Z 22008KT 24/19 A3011 RMK A01 T02430185  RH  072%=      5-min Rain = 0
KPT1 261405Z 21009G14KT 25/19 A3011 RMK A01 T02450185  RH  071%=      5-min Rain = 0
KPT1 261410Z 21009KT 25/19 A3011 RMK A01 T02470186  RH  071%=      5-min Rain = 0
KPT1 261415Z 21008KT 25/19 A3011 RMK A01 T02500187  RH  070%=      5-min Rain = 0
KPT1 261420Z 21007G12KT 25/19 A3011 RMK A01 T02540189  RH  069%=      5-min Rain = 0
KPT1 261425Z 20009KT 25/19 A3011 RMK A01 T02530186  RH  068%=      5-min Rain = 0
KPT1 261430Z 21010KT 25/19 A3011 RMK A01 T02540186  RH  068%=      5-min Rain = 0
KPT1 261435Z 20008KT 26/19 A3011 RMK A01 T02580187  RH  067%=      5-min Rain = 0
KPT1 261440Z 20006G11KT 27/19 A3011 RMK A01 T02650190  RH  065%=      5-min Rain = 0
KPT1 261445Z 18009G14KT 26/19 A3011 RMK A01 T02640188  RH  065%=      5-min Rain = 0
KPT1 261450Z 20009KT 26/19 A3011 RMK A01 T02640187  RH  065%=      5-min Rain = 0
KPT1 261455Z 19008KT 26/19 A3011 RMK A01 T02630186  RH  064%=      5-min Rain = 0
KPT1 261500Z 19008KT 27/19 A3011 RMK A01 T02680188  RH  063%=      5-min Rain = 0
KPT1 261505Z 20007KT 27/19 A3011 RMK A01 T02670188  RH  063%=      5-min Rain = 0
KPT1 261510Z 19008KT 27/19 A3011 RMK A01 T02730188  RH  062%=      5-min Rain = 0
KPT1 261515Z 19009KT 27/19 A3011 RMK A01 T02700185  RH  061%=      5-min Rain = 0
KPT1 261520Z 20008KT 27/19 A3011 RMK A01 T02740186  RH  060%=      5-min Rain = 0
KPT1 261525Z 20008KT 28/18 A3011 RMK A01 T02760183  RH  058%=      5-min Rain = 0
KPT1 261530Z 19007KT 28/18 A3011 RMK A01 T02760184  RH  059%=      5-min Rain = 0
KPT1 261535Z 17007KT 28/19 A3011 RMK A01 T02820186  RH  058%=      5-min Rain = 0
KPT1 261540Z 17008KT 28/18 A3011 RMK A01 T02820182  RH  056%=      5-min Rain = 0
KPT1 261545Z 18007KT 28/18 A3011 RMK A01 T02840183  RH  056%=      5-min Rain = 0
KPT1 261550Z 17008G14KT 29/18 A3011 RMK A01 T02870184  RH  055%=      5-min Rain = 0
KPT1 261555Z 18008G13KT 29/18 A3011 RMK A01 T02860177  RH  053%=      5-min Rain = 0
KPT1 261600Z 19009G15KT 29/18 A3011 RMK A01 T02850177  RH  053%=      5-min Rain = 0
KPT1 261605Z 19009G14KT 29/18 A3011 RMK A01 T02890179  RH  053%=      5-min Rain = 0
KPT1 261610Z 17009KT 29/18 A3011 RMK A01 T02900182  RH  054%=      5-min Rain = 0
KPT1 261615Z 18008G13KT 29/18 A3011 RMK A01 T02900184  RH  054%=      5-min Rain = 0
KPT1 261620Z 16009G17KT 30/18 A3011 RMK A01 T02950181  RH  051%=      5-min Rain = 0
KPT1 261625Z 16010G15KT 29/18 A3011 RMK A01 T02920179  RH  052%=      5-min Rain = 0
KPT1 261630Z 16010G15KT 29/18 A3011 RMK A01 T02920178  RH  051%=      5-min Rain = 0
KPT1 261635Z 17009G14KT 29/18 A3011 RMK A01 T02940178  RH  051%=      5-min Rain = 0
KPT1 261640Z 17010G15KT 30/18 A3011 RMK A01 T02950178  RH  051%=      5-min Rain = 0
KPT1 261645Z 16009KT 30/18 A3011 RMK A01 T02980176  RH  049%=      5-min Rain = 0
KPT1 261650Z 16010G16KT 30/18 A3012 RMK A01 T03000179  RH  050%=      5-min Rain = 0
KPT1 261655Z 17010G16KT 30/18 A3012 RMK A01 T03000180  RH  050%=      5-min Rain = 0
KPT1 261700Z 17010KT 30/18 A3012 RMK A01 T02990178  RH  050%=      5-min Rain = 0
KPT1 261705Z 17011G16KT 30/18 A3012 RMK A01 T03010175  RH  048%=      5-min Rain = 0
KPT1 261710Z 16007G15KT 31/18 A3012 RMK A01 T03060180  RH  048%=      5-min Rain = 0
KPT1 261715Z 15011KT 30/18 A3012 RMK A01 T03040175  RH  047%=      5-min Rain = 0
KPT1 261720Z 16009KT 30/18 A3012 RMK A01 T03030175  RH  048%=      5-min Rain = 0
KPT1 261725Z 14010G16KT 31/18 A3012 RMK A01 T03050176  RH  047%=      5-min Rain = 0
KPT1 261730Z 14010G15KT 31/18 A3012 RMK A01 T03090179  RH  047%=      5-min Rain = 0
KPT1 261735Z 16009G14KT 31/18 A3012 RMK A01 T03100180  RH  047%=      5-min Rain = 0
KPT1 261740Z 16010G16KT 31/17 A3012 RMK A01 T03100174  RH  045%=      5-min Rain = 0
KPT1 261745Z 15011G16KT 31/17 A3012 RMK A01 T03090172  RH  045%=      5-min Rain = 0
KPT1 261750Z 15012KT 31/17 A3011 RMK A01 T03090169  RH  044%=      5-min Rain = 0
KPT1 261755Z 17011G17KT 31/16 A3012 RMK A01 T03120164  RH  042%=      5-min Rain = 0
KPT1 261800Z 16008G13KT 31/17 A3012 RMK A01 T03140171  RH  043%=      5-min Rain = 0
KPT1 261805Z 15011KT 32/17 A3012 RMK A01 T03150168  RH  042%=      5-min Rain = 0
KPT1 261810Z 15011G18KT 31/17 A3012 RMK A01 T03140166  RH  042%=      5-min Rain = 0
KPT1 261815Z 17010G15KT 31/17 A3012 RMK A01 T03140168  RH  043%=      5-min Rain = 0
KPT1 261820Z 18010G15KT 31/16 A3011 RMK A01 T03130163  RH  041%=      5-min Rain = 0
KPT1 261825Z 18011G16KT 31/16 A3011 RMK A01 T03140161  RH  041%=      5-min Rain = 0
KPT1 261830Z 17011G18KT 32/16 A3011 RMK A01 T03160163  RH  041%=      5-min Rain = 0
KPT1 261835Z 16010G15KT 32/16 A3011 RMK A01 T03160160  RH  040%=      5-min Rain = 0
KPT1 261840Z 14013KT 32/16 A3011 RMK A01 T03150163  RH  041%=      5-min Rain = 0
KPT1 261845Z 15010G15KT 32/17 A3011 RMK A01 T03190168  RH  041%=      5-min Rain = 0
KPT1 261850Z 14011G18KT 32/17 A3011 RMK A01 T03180169  RH  042%=      5-min Rain = 0
KPT1 261855Z 15013G19KT 32/17 A301 RMK A01 T03190170  RH  042%=      5-min Rain = 0
KPT1 261900Z 17012G19KT 32/17 A301 RMK A01 T03190169  RH  042%=      5-min Rain = 0
KPT1 261905Z 18013G18KT 32/17 A301 RMK A01 T03180167  RH  041%=      5-min Rain = 0
KPT1 261910Z 17011G18KT 32/17 A301 RMK A01 T03160166  RH  041%=      5-min Rain = 0
KPT1 261915Z 16010KT 32/17 A301 RMK A01 T03220171  RH  042%=      5-min Rain = 0
KPT1 261920Z 17011G18KT 32/17 A301 RMK A01 T03220168  RH  041%=      5-min Rain = 0
KPT1 261925Z 16011KT 32/17 A301 RMK A01 T03190170  RH  042%=      5-min Rain = 0
KPT1 261930Z 15014G20KT 32/17 A301 RMK A01 T03150165  RH  041%=      5-min Rain = 0
KPT1 261935Z 17012G17KT 32/16 A301 RMK A01 T03160163  RH  041%=      5-min Rain = 0
KPT1 261940Z 15012G19KT 32/17 A301 RMK A01 T03160166  RH  042%=      5-min Rain = 0
KPT1 261945Z 16010KT 32/17 A301 RMK A01 T03200167  RH  041%=      5-min Rain = 0
KPT1 261950Z 15013G19KT 32/17 A301 RMK A01 T03180167  RH  041%=      5-min Rain = 0
KPT1 261955Z 15011G17KT 32/17 A301 RMK A01 T03170165  RH  041%=      5-min Rain = 0
KPT1 262000Z 16011G17KT 32/16 A301 RMK A01 T03190164  RH  040%=      5-min Rain = 0
KPT1 262005Z 17009G15KT 32/17 A301 RMK A01 T03190169  RH  042%=      5-min Rain = 0
KPT1 262010Z 16012G17KT 32/17 A301 RMK A01 T03220171  RH  041%=      5-min Rain = 0
KPT1 262015Z 16011G17KT 32/17 A301 RMK A01 T03190166  RH  041%=      5-min Rain = 0
KPT1 262020Z 15013KT 32/17 A301 RMK A01 T03200165  RH  040%=      5-min Rain = 0
KPT1 262025Z 14011KT 32/17 A301 RMK A01 T03200169  RH  041%=      5-min Rain = 0
KPT1 262030Z 14012G18KT 32/17 A301 RMK A01 T03180166  RH  041%=      5-min Rain = 0
KPT1 262035Z 15011G18KT 32/17 A3009 RMK A01 T03210165  RH  040%=      5-min Rain = 0
KPT1 262040Z 16011G17KT 32/16 A301 RMK A01 T03200163  RH  040%=      5-min Rain = 0
KPT1 262045Z 18011KT 32/16 A301 RMK A01 T03240162  RH  039%=      5-min Rain = 0
KPT1 262050Z 17012G17KT 32/16 A301 RMK A01 T03190161  RH  040%=      5-min Rain = 0
KPT1 262055Z 17011G16KT 32/16 A301 RMK A01 T03200163  RH  040%=      5-min Rain = 0
KPT1 262100Z 16011G17KT 32/16 A3009 RMK A01 T03170161  RH  040%=      5-min Rain = 0
KPT1 262105Z 18011G18KT 32/16 A3009 RMK A01 T03180158  RH  039%=      5-min Rain = 0
KPT1 262110Z 16012G17KT 32/16 A3009 RMK A01 T03170158  RH  039%=      5-min Rain = 0
KPT1 262115Z 16010G15KT 32/16 A3009 RMK A01 T03180161  RH  040%=      5-min Rain = 0
KPT1 262120Z 15012G18KT 32/16 A3009 RMK A01 T03210161  RH  039%=      5-min Rain = 0
KPT1 262125Z 15013G18KT 32/15 A3009 RMK A01 T03170154  RH  038%=      5-min Rain = 0
KPT1 262130Z 13009G14KT 32/15 A3008 RMK A01 T03170152  RH  038%=      5-min Rain = 0
KPT1 262135Z 14011G19KT 32/16 A3008 RMK A01 T03220156  RH  038%=      5-min Rain = 0
KPT1 262140Z 14010KT 32/15 A3008 RMK A01 T03220151  RH  036%=      5-min Rain = 0
KPT1 262145Z 15010G15KT 32/15 A3008 RMK A01 T03220152  RH  037%=      5-min Rain = 0
KPT1 262150Z 14011G17KT 32/15 A3008 RMK A01 T03230146  RH  035%=      5-min Rain = 0
KPT1 262155Z 15011G18KT 32/15 A3008 RMK A01 T03240145  RH  034%=      5-min Rain = 0
KPT1 262200Z 15009G15KT 32/15 A3008 RMK A01 T03240145  RH  034%=      5-min Rain = 0
KPT1 262205Z 15009G16KT 33/15 A3008 RMK A01 T03270146  RH  034%=      5-min Rain = 0
KPT1 262210Z 14011KT 32/14 A3008 RMK A01 T03230138  RH  033%=      5-min Rain = 0
KPT1 262215Z 15010G15KT 32/14 A3008 RMK A01 T03220138  RH  033%=      5-min Rain = 0
KPT1 262220Z 16011G17KT 32/13 A3008 RMK A01 T03210132  RH  032%=      5-min Rain = 0
KPT1 262225Z 15010G15KT 32/13 A3007 RMK A01 T03190133  RH  033%=      5-min Rain = 0
KPT1 262230Z 16010KT 32/14 A3007 RMK A01 T03230137  RH  033%=      5-min Rain = 0
KPT1 262235Z 15009KT 32/14 A3007 RMK A01 T03200143  RH  035%=      5-min Rain = 0
KPT1 262240Z 16012G18KT 32/14 A3007 RMK A01 T03200141  RH  035%=      5-min Rain = 0
KPT1 262245Z 17011KT 32/14 A3007 RMK A01 T03210142  RH  035%=      5-min Rain = 0
KPT1 262250Z 17011KT 32/14 A3007 RMK A01 T03220140  RH  034%=      5-min Rain = 0
KPT1 262255Z 17010G15KT 32/14 A3007 RMK A01 T03220141  RH  034%=      5-min Rain = 0
KPT1 262300Z 17010G17KT 32/15 A3006 RMK A01 T03210147  RH  036%=      5-min Rain = 0
KPT1 262305Z 16011G16KT 32/14 A3006 RMK A01 T03210144  RH  035%=      5-min Rain = 0
KPT1 262310Z 14010G16KT 32/14 A3006 RMK A01 T03230144  RH  035%=      5-min Rain = 0
KPT1 262315Z 16010KT 32/14 A3006 RMK A01 T03230135  RH  033%=      5-min Rain = 0
KPT1 262320Z 15010KT 32/14 A3006 RMK A01 T03220137  RH  033%=      5-min Rain = 0
KPT1 262325Z 17010G15KT 32/14 A3006 RMK A01 T03200141  RH  034%=      5-min Rain = 0
KPT1 262330Z 15009KT 32/15 A3006 RMK A01 T03210146  RH  035%=      5-min Rain = 0
KPT1 262335Z 16010G17KT 32/15 A3006 RMK A01 T03230145  RH  035%=      5-min Rain = 0
KPT1 262340Z 15010KT 32/14 A3006 RMK A01 T03200139  RH  034%=      5-min Rain = 0
KPT1 262345Z 15012KT 32/14 A3005 RMK A01 T03180143  RH  035%=      5-min Rain = 0
KPT1 262350Z 14010G16KT 32/14 A3005 RMK A01 T03180141  RH  035%=      5-min Rain = 0
KPT1 262355Z 15011G17KT 32/14 A3005 RMK A01 T03170137  RH  034%=      5-min Rain = 0
KPT1 270000Z 15010KT 32/14 A3005 RMK A01 T03160137  RH  034%=      5-min Rain = 0
KPT1 270005Z 15010G17KT 32/14 A3006 RMK A01 T03180140  RH  035%=      5-min Rain = 0
KPT1 270010Z 15010KT 32/14 A3006 RMK A01 T03150139  RH  035%=      5-min Rain = 0
KPT1 270015Z 16011G17KT 32/14 A3006 RMK A01 T03160138  RH  035%=      5-min Rain = 0
KPT1 270020Z 17013G18KT 31/14 A3006 RMK A01 T03130138  RH  035%=      5-min Rain = 0
KPT1 270025Z 16012G17KT 31/14 A3006 RMK A01 T03120138  RH  036%=      5-min Rain = 0
KPT1 270030Z 16011KT 31/14 A3006 RMK A01 T03120135  RH  035%=      5-min Rain = 0
KPT1 270035Z 15009KT 31/14 A3006 RMK A01 T03110139  RH  036%=      5-min Rain = 0
KPT1 270040Z 14011KT 31/14 A3006 RMK A01 T03100144  RH  037%=      5-min Rain = 0
KPT1 270045Z 15011KT 31/15 A3006 RMK A01 T03090147  RH  038%=      5-min Rain = 0
KPT1 270050Z 14011G16KT 31/15 A3007 RMK A01 T03070145  RH  038%=      5-min Rain = 0
KPT1 270055Z 13011G16KT 31/15 A3007 RMK A01 T03050148  RH  039%=      5-min Rain = 0
KPT1 270100Z 15010KT 30/15 A3007 RMK A01 T03020150  RH  041%=      5-min Rain = 0
KPT1 270105Z 15011G16KT 30/15 A3007 RMK A01 T03010150  RH  041%=      5-min Rain = 0
KPT1 270110Z 14012G18KT 30/15 A3007 RMK A01 T02990148  RH  041%=      5-min Rain = 0
KPT1 270115Z 14011KT 30/15 A3007 RMK A01 T02980148  RH  041%=      5-min Rain = 0
KPT1 270120Z 14012KT 30/15 A3007 RMK A01 T02970146  RH  041%=      5-min Rain = 0
KPT1 270125Z 15011G16KT 30/15 A3007 RMK A01 T02950146  RH  041%=      5-min Rain = 0
KPT1 270130Z 15008G13KT 29/15 A3007 RMK A01 T02920147  RH  042%=      5-min Rain = 0
KPT1 270135Z 15010G15KT 29/15 A3008 RMK A01 T02910148  RH  043%=      5-min Rain = 0
KPT1 270140Z 15009KT 29/15 A3008 RMK A01 T02890149  RH  043%=      5-min Rain = 0
KPT1 270145Z 14008KT 29/15 A3008 RMK A01 T02870150  RH  044%=      5-min Rain = 0
KPT1 270150Z 14008KT 28/15 A3008 RMK A01 T02840151  RH  045%=      5-min Rain = 0
KPT1 270155Z 14008KT 28/15 A3008 RMK A01 T02810152  RH  046%=      5-min Rain = 0
KPT1 270200Z 14007KT 28/15 A3008 RMK A01 T02780153  RH  047%=      5-min Rain = 0
KPT1 270205Z 14007KT 28/15 A3008 RMK A01 T02760154  RH  049%=      5-min Rain = 0
KPT1 270210Z 13007KT 27/16 A3008 RMK A01 T02740156  RH  050%=      5-min Rain = 0
KPT1 270215Z 14007KT 27/16 A3008 RMK A01 T02710157  RH  051%=      5-min Rain = 0
KPT1 270220Z 14006KT 27/16 A3009 RMK A01 T02700157  RH  051%=      5-min Rain = 0
KPT1 270225Z 14006KT 27/16 A3009 RMK A01 T02680158  RH  052%=      5-min Rain = 0
KPT1 270230Z 13006KT 27/16 A3009 RMK A01 T02650159  RH  053%=      5-min Rain = 0
KPT1 270235Z 13006KT 26/16 A3009 RMK A01 T02620160  RH  054%=      5-min Rain = 0
KPT1 270240Z 14006KT 26/16 A301 RMK A01 T02600160  RH  055%=      5-min Rain = 0
KPT1 270245Z 14006KT 26/16 A301 RMK A01 T02590160  RH  056%=      5-min Rain = 0
KPT1 270250Z 14005KT 26/16 A301 RMK A01 T02570161  RH  056%=      5-min Rain = 0
KPT1 270255Z 14005KT 26/16 A3011 RMK A01 T02560161  RH  057%=      5-min Rain = 0
KPT1 270300Z 14005KT 26/16 A3011 RMK A01 T02560162  RH  057%=      5-min Rain = 0
KPT1 270305Z 15005KT 26/16 A3011 RMK A01 T02550163  RH  058%=      5-min Rain = 0
KPT1 270310Z 15005KT 25/16 A3011 RMK A01 T02530164  RH  059%=      5-min Rain = 0
KPT1 270315Z 15004KT 25/17 A3012 RMK A01 T02520165  RH  060%=      5-min Rain = 0
KPT1 270320Z 16004KT 25/17 A3012 RMK A01 T02510166  RH  060%=      5-min Rain = 0
KPT1 270325Z 15005KT 25/17 A3013 RMK A01 T02510166  RH  061%=      5-min Rain = 0
KPT1 270330Z 15005KT 25/17 A3013 RMK A01 T02490166  RH  061%=      5-min Rain = 0
KPT1 270335Z 15005KT 25/17 A3013 RMK A01 T02480167  RH  062%=      5-min Rain = 0
KPT1 270340Z 16005KT 25/17 A3014 RMK A01 T02470168  RH  063%=      5-min Rain = 0
KPT1 270345Z 16005KT 25/17 A3014 RMK A01 T02470168  RH  063%=      5-min Rain = 0
KPT1 270350Z 16005KT 25/17 A3014 RMK A01 T02470168  RH  063%=      5-min Rain = 0
KPT1 270355Z 16005KT 25/17 A3014 RMK A01 T02470169  RH  063%=      5-min Rain = 0
KPT1 270400Z 16005KT 25/17 A3015 RMK A01 T02460170  RH  064%=      5-min Rain = 0
KPT1 270405Z 15005KT 25/17 A3015 RMK A01 T02460171  RH  065%=      5-min Rain = 0
KPT1 270410Z 15005KT 24/17 A3015 RMK A01 T02440172  RH  066%=      5-min Rain = 0
KPT1 270415Z 15006KT 24/17 A3016 RMK A01 T02410172  RH  067%=      5-min Rain = 0
KPT1 270420Z 15006KT 24/17 A3016 RMK A01 T02410173  RH  067%=      5-min Rain = 0
KPT1 270425Z 15005KT 24/17 A3016 RMK A01 T02400174  RH  068%=      5-min Rain = 0
KPT1 270430Z 15005KT 24/18 A3016 RMK A01 T02400175  RH  069%=      5-min Rain = 0
KPT1 270435Z 15006KT 24/18 A3016 RMK A01 T02390175  RH  069%=      5-min Rain = 0
KPT1 270440Z 15006KT 24/18 A3016 RMK A01 T02390176  RH  070%=      5-min Rain = 0
KPT1 270445Z 15006KT 24/18 A3016 RMK A01 T02380177  RH  070%=      5-min Rain = 0
KPT1 270450Z 15006KT 24/18 A3016 RMK A01 T02380178  RH  071%=      5-min Rain = 0
KPT1 270455Z 15006KT 24/18 A3016 RMK A01 T02370178  RH  071%=      5-min Rain = 0

Page generated in 0.0159 seconds.